Time;durP1;ratioP1;P1;durP2;ratioP2;P2;SDS_P1;SDS_P2;PMS_P1;PMS_P2;Temp;Humidity;BMP_temperature;BMP_pressure;BME280_temperature;BME280_humidity;BME280_pressure;Samples;Min_cycle;Max_cycle;Signal;HPM_P1;HPM_P2
2023/08/22 00:01:21;;;;;;;11.57;9.07;;;;;;;;;;4993469;28;20499;-58
2023/08/22 00:03:47;;;;;;;12.10;8.60;;;;;;;;;;4992377;28;20037;-58
2023/08/22 00:06:12;;;;;;;9.75;8.57;;;;;;;;;;4984913;28;20539;-58
2023/08/22 00:08:38;;;;;;;10.10;9.00;;;;;;;;;;4993378;28;20048;-58
2023/08/22 00:11:03;;;;;;;10.10;8.98;;;;;;;;;;5010096;28;20380;-57
2023/08/22 00:13:28;;;;;;;9.97;8.17;;;;;;;;;;4994436;28;20056;-59
2023/08/22 00:16:03;;;;;;;11.80;9.03;;;;;;;;;;4992856;28;20288;-58
2023/08/22 00:18:28;;;;;;;10.45;9.35;;;;;;;;;;4998448;28;20324;-57
2023/08/22 00:20:53;;;;;;;10.65;9.55;;;;;;;;;;5014016;28;20503;-59
2023/08/22 00:23:19;;;;;;;10.80;9.02;;;;;;;;;;4999126;28;20061;-58
2023/08/22 00:25:44;;;;;;;11.23;9.13;;;;;;;;;;5011916;28;20033;-58
2023/08/22 00:28:09;;;;;;;12.13;9.02;;;;;;;;;;5016643;28;21403;-58
2023/08/22 00:30:34;;;;;;;10.17;8.83;;;;;;;;;;5018561;28;20060;-59
2023/08/22 00:33:00;;;;;;;12.40;9.00;;;;;;;;;;4977556;28;20790;-58
2023/08/22 00:35:28;;;;;;;12.03;8.67;;;;;;;;;;5001527;28;20486;-58
2023/08/22 00:37:53;;;;;;;11.98;8.80;;;;;;;;;;4980624;28;20904;-58
2023/08/22 00:40:18;;;;;;;10.97;9.07;;;;;;;;;;5017444;28;20532;-57
2023/08/22 00:42:44;;;;;;;11.70;9.23;;;;;;;;;;4984681;28;20499;-58
2023/08/22 00:45:09;;;;;;;12.47;9.40;;;;;;;;;;5006612;28;20586;-58
2023/08/22 00:47:35;;;;;;;13.30;9.95;;;;;;;;;;4993833;28;20666;-59
2023/08/22 00:50:00;;;;;;;10.80;8.70;;;;;;;;;;4989421;28;20040;-57
2023/08/22 00:52:25;;;;;;;10.60;8.87;;;;;;;;;;5008670;28;20285;-59
2023/08/22 00:54:50;;;;;;;10.27;9.07;;;;;;;;;;5000340;28;20037;-59
2023/08/22 00:57:16;;;;;;;10.60;8.93;;;;;;;;;;5004746;28;20340;-58
2023/08/22 00:59:41;;;;;;;11.70;9.13;;;;;;;;;;4999312;28;20512;-58
2023/08/22 01:02:09;;;;;;;12.50;9.33;;;;;;;;;;4989948;28;20516;-58
2023/08/22 01:04:34;;;;;;;10.55;8.60;;;;;;;;;;5001195;28;20288;-57
2023/08/22 01:07:12;;;;;;;10.63;8.80;;;;;;;;;;4982723;28;20049;-56
2023/08/22 01:09:39;;;;;;;10.02;8.70;;;;;;;;;;4997895;28;20041;-57
2023/08/22 01:12:10;;;;;;;10.68;8.57;;;;;;;;;;4964854;28;20529;-57
2023/08/22 01:14:36;;;;;;;11.52;9.20;;;;;;;;;;5011629;28;20455;-58
2023/08/22 01:17:02;;;;;;;11.63;8.98;;;;;;;;;;4986805;28;20486;-58
2023/08/22 01:19:27;;;;;;;11.55;8.38;;;;;;;;;;4960241;28;20045;-59
2023/08/22 01:21:52;;;;;;;12.80;8.80;;;;;;;;;;4982149;28;20049;-58
2023/08/22 01:24:18;;;;;;;11.43;9.05;;;;;;;;;;4996386;28;20663;-57
2023/08/22 01:26:44;;;;;;;11.18;9.05;;;;;;;;;;5001977;28;20033;-57
2023/08/22 01:29:10;;;;;;;10.70;8.50;;;;;;;;;;4989942;28;20128;-57
2023/08/22 01:31:35;;;;;;;10.63;8.95;;;;;;;;;;4997854;28;20128;-58
2023/08/22 01:34:12;;;;;;;11.53;9.30;;;;;;;;;;5004369;28;20068;-58
2023/08/22 01:36:38;;;;;;;13.20;9.68;;;;;;;;;;4980959;28;20526;-58
2023/08/22 01:39:07;;;;;;;10.83;9.33;;;;;;;;;;4986570;28;20021;-58
2023/08/22 01:41:33;;;;;;;11.07;8.85;;;;;;;;;;5013456;28;20303;-60
2023/08/22 01:43:58;;;;;;;11.70;9.27;;;;;;;;;;4985507;28;20065;-58
2023/08/22 01:46:23;;;;;;;10.27;8.97;;;;;;;;;;4981785;28;20021;-58
2023/08/22 01:48:48;;;;;;;11.50;9.20;;;;;;;;;;4994148;28;20022;-58
2023/08/22 01:51:14;;;;;;;11.70;9.43;;;;;;;;;;4997600;28;20029;-58
2023/08/22 01:53:39;;;;;;;11.90;9.80;;;;;;;;;;4997729;28;20828;-58
2023/08/22 01:56:04;;;;;;;12.60;9.10;;;;;;;;;;5002165;28;20021;-58
2023/08/22 01:58:29;;;;;;;11.37;9.07;;;;;;;;;;5009640;28;20030;-58
2023/08/22 02:00:54;;;;;;;10.90;9.30;;;;;;;;;;4978817;28;20029;-57
2023/08/22 02:03:20;;;;;;;11.65;9.35;;;;;;;;;;5009802;28;20343;-59
2023/08/22 02:05:45;;;;;;;11.10;9.02;;;;;;;;;;5015196;28;20033;-57
2023/08/22 02:08:11;;;;;;;13.05;9.70;;;;;;;;;;5000616;28;20092;-58
2023/08/22 02:10:36;;;;;;;10.73;8.83;;;;;;;;;;4997192;28;20085;-58
2023/08/22 02:13:02;;;;;;;10.13;9.00;;;;;;;;;;5000396;28;20291;-58
2023/08/22 02:15:27;;;;;;;10.50;9.23;;;;;;;;;;4993270;28;20038;-58
2023/08/22 02:17:52;;;;;;;12.17;9.40;;;;;;;;;;4996576;28;20049;-58
2023/08/22 02:20:22;;;;;;;11.03;9.10;;;;;;;;;;4997042;28;20403;-57
2023/08/22 02:22:47;;;;;;;10.82;9.57;;;;;;;;;;4995967;28;20048;-59
2023/08/22 02:25:13;;;;;;;11.70;8.73;;;;;;;;;;5000115;28;20038;-58
2023/08/22 02:27:38;;;;;;;11.13;9.18;;;;;;;;;;5010556;28;20045;-58
2023/08/22 02:30:04;;;;;;;11.13;9.50;;;;;;;;;;5016500;28;20536;-58
2023/08/22 02:32:30;;;;;;;11.23;10.07;;;;;;;;;;4991957;28;20089;-58
2023/08/22 02:34:55;;;;;;;10.77;9.40;;;;;;;;;;4994335;28;20552;-58
2023/08/22 02:37:20;;;;;;;10.97;9.77;;;;;;;;;;4978905;28;20972;-58
2023/08/22 02:39:45;;;;;;;10.53;8.90;;;;;;;;;;5004263;28;21019;-57
2023/08/22 02:42:11;;;;;;;10.20;9.00;;;;;;;;;;5012249;28;20911;-58
2023/08/22 02:44:36;;;;;;;10.53;9.43;;;;;;;;;;5001353;28;20736;-59
2023/08/22 02:47:01;;;;;;;10.73;9.40;;;;;;;;;;5002707;28;20294;-58
2023/08/22 02:49:27;;;;;;;10.95;9.40;;;;;;;;;;4997082;28;20304;-60
2023/08/22 02:51:52;;;;;;;10.93;9.17;;;;;;;;;;4996496;28;20116;-56
2023/08/22 02:54:17;;;;;;;11.23;9.03;;;;;;;;;;5004324;28;20623;-58
2023/08/22 02:56:42;;;;;;;10.47;9.03;;;;;;;;;;4986906;28;20132;-57
2023/08/22 02:59:07;;;;;;;11.67;8.90;;;;;;;;;;5000302;28;20145;-57
2023/08/22 03:01:33;;;;;;;11.03;9.60;;;;;;;;;;5000980;28;20112;-58
2023/08/22 03:03:58;;;;;;;10.50;9.37;;;;;;;;;;4986316;28;20276;-57
2023/08/22 03:06:23;;;;;;;13.37;9.63;;;;;;;;;;4973996;28;20037;-57
2023/08/22 03:08:49;;;;;;;12.30;9.60;;;;;;;;;;4997059;28;20280;-57
2023/08/22 03:11:14;;;;;;;10.50;9.40;;;;;;;;;;5007337;28;20277;-57
2023/08/22 03:13:39;;;;;;;10.20;9.13;;;;;;;;;;4995122;28;20148;-57
2023/08/22 03:16:05;;;;;;;11.18;9.38;;;;;;;;;;4994019;28;20029;-57
2023/08/22 03:18:30;;;;;;;11.63;9.30;;;;;;;;;;4995948;28;20072;-57
2023/08/22 03:20:58;;;;;;;11.90;9.32;;;;;;;;;;4994973;28;20566;-56
2023/08/22 03:23:23;;;;;;;14.73;9.60;;;;;;;;;;4995388;28;20042;-57
2023/08/22 03:25:58;;;;;;;11.40;9.60;;;;;;;;;;4976527;28;20157;-57
2023/08/22 03:28:24;;;;;;;11.30;9.57;;;;;;;;;;4985571;28;20050;-57
2023/08/22 03:30:53;;;;;;;11.68;9.88;;;;;;;;;;5004315;28;20049;-57
2023/08/22 03:33:18;;;;;;;18.90;11.00;;;;;;;;;;5008266;28;20038;-57
2023/08/22 03:35:44;;;;;;;12.02;10.18;;;;;;;;;;4995230;28;20091;-57
2023/08/22 03:38:09;;;;;;;13.10;10.13;;;;;;;;;;4977385;28;20065;-57
2023/08/22 03:40:34;;;;;;;11.40;10.03;;;;;;;;;;4993513;28;20908;-58
2023/08/22 03:42:59;;;;;;;12.10;9.87;;;;;;;;;;4994813;28;20483;-56
2023/08/22 03:45:24;;;;;;;13.00;10.10;;;;;;;;;;4995158;28;20496;-57
2023/08/22 03:47:50;;;;;;;14.03;10.27;;;;;;;;;;5002050;28;20457;-57
2023/08/22 03:50:15;;;;;;;14.30;10.30;;;;;;;;;;5001088;28;20374;-58
2023/08/22 03:52:40;;;;;;;13.07;10.40;;;;;;;;;;5009236;28;20142;-56
2023/08/22 03:55:05;;;;;;;13.97;10.70;;;;;;;;;;4984801;28;20633;-57
2023/08/22 03:57:31;;;;;;;15.32;11.30;;;;;;;;;;5001921;28;20320;-58
2023/08/22 03:59:56;;;;;;;13.13;10.67;;;;;;;;;;5012151;28;20046;-57
2023/08/22 04:02:21;;;;;;;11.23;9.80;;;;;;;;;;4983053;28;20817;-57
2023/08/22 04:04:46;;;;;;;12.60;9.80;;;;;;;;;;5001376;28;20693;-58
2023/08/22 04:07:12;;;;;;;12.97;9.93;;;;;;;;;;5007353;28;20291;-57
2023/08/22 04:09:37;;;;;;;12.80;10.02;;;;;;;;;;5003111;28;20038;-58
2023/08/22 04:12:02;;;;;;;14.00;11.17;;;;;;;;;;4999467;28;20875;-57
2023/08/22 04:14:27;;;;;;;14.43;10.82;;;;;;;;;;5003161;28;20300;-58
2023/08/22 04:16:53;;;;;;;14.97;10.77;;;;;;;;;;4999640;28;20433;-57
2023/08/22 04:19:18;;;;;;;12.85;10.95;;;;;;;;;;5003688;28;20522;-58
2023/08/22 04:21:43;;;;;;;11.27;10.00;;;;;;;;;;5018215;28;20061;-58
2023/08/22 04:24:09;;;;;;;13.73;11.30;;;;;;;;;;4997143;28;20279;-58
2023/08/22 04:26:35;;;;;;;12.80;10.80;;;;;;;;;;4981659;28;20752;-58
2023/08/22 04:29:00;;;;;;;13.57;10.33;;;;;;;;;;4986069;28;20034;-58
2023/08/22 04:31:25;;;;;;;11.87;10.03;;;;;;;;;;4988099;28;20782;-59
2023/08/22 04:33:50;;;;;;;12.47;10.13;;;;;;;;;;4972685;28;20705;-59
2023/08/22 04:36:15;;;;;;;14.50;10.63;;;;;;;;;;4971817;28;20835;-58
2023/08/22 04:38:41;;;;;;;14.17;10.77;;;;;;;;;;4972870;28;20380;-59
2023/08/22 04:41:06;;;;;;;15.60;11.20;;;;;;;;;;4976530;28;20065;-56
2023/08/22 04:43:31;;;;;;;16.27;11.60;;;;;;;;;;4958079;28;20034;-58
2023/08/22 04:45:57;;;;;;;15.45;10.55;;;;;;;;;;4975172;28;20293;-58
2023/08/22 04:48:23;;;;;;;13.95;10.65;;;;;;;;;;4961908;28;20037;-58
2023/08/22 04:50:48;;;;;;;12.40;10.32;;;;;;;;;;4976786;28;20125;-58
2023/08/22 04:53:13;;;;;;;13.63;10.63;;;;;;;;;;4974850;28;20458;-59
2023/08/22 04:55:39;;;;;;;14.43;11.10;;;;;;;;;;4972514;28;20527;-58
2023/08/22 04:58:04;;;;;;;13.93;11.70;;;;;;;;;;4976888;28;20331;-59
2023/08/22 05:00:30;;;;;;;16.93;11.67;;;;;;;;;;4963794;28;20030;-59
2023/08/22 05:02:55;;;;;;;15.38;10.93;;;;;;;;;;4956208;28;20317;-58
2023/08/22 05:05:20;;;;;;;14.00;10.83;;;;;;;;;;4974221;28;21505;-58
2023/08/22 05:07:46;;;;;;;16.43;12.73;;;;;;;;;;4975371;28;20328;-59
2023/08/22 05:10:11;;;;;;;23.87;17.57;;;;;;;;;;4973980;28;20316;-58
2023/08/22 05:12:36;;;;;;;17.58;14.05;;;;;;;;;;4975056;28;20298;-59
2023/08/22 05:15:02;;;;;;;16.10;11.90;;;;;;;;;;4979045;28;20487;-58
2023/08/22 05:17:27;;;;;;;16.85;12.40;;;;;;;;;;4968188;28;20665;-58
2023/08/22 05:19:52;;;;;;;16.60;12.50;;;;;;;;;;4970013;28;20030;-57
2023/08/22 05:22:18;;;;;;;14.98;12.38;;;;;;;;;;4971946;28;20351;-58
2023/08/22 05:24:43;;;;;;;20.60;13.25;;;;;;;;;;4971890;28;20640;-58
2023/08/22 05:27:08;;;;;;;18.42;12.52;;;;;;;;;;4969611;28;20125;-58
2023/08/22 05:29:33;;;;;;;16.00;12.23;;;;;;;;;;4970345;28;20066;-58
2023/08/22 05:31:59;;;;;;;17.57;13.43;;;;;;;;;;4970304;28;20303;-58
2023/08/22 05:34:24;;;;;;;19.73;12.98;;;;;;;;;;4972885;28;20435;-59
2023/08/22 05:36:49;;;;;;;20.02;13.10;;;;;;;;;;4976751;28;20134;-57
2023/08/22 05:39:15;;;;;;;21.23;12.82;;;;;;;;;;4952804;28;20302;-58
2023/08/22 05:41:40;;;;;;;18.15;12.35;;;;;;;;;;4972747;28;20068;-58
2023/08/22 05:44:05;;;;;;;17.70;12.83;;;;;;;;;;4971945;28;20142;-59
2023/08/22 05:46:30;;;;;;;16.40;12.47;;;;;;;;;;4973965;28;20882;-59
2023/08/22 05:48:56;;;;;;;15.10;12.03;;;;;;;;;;4973229;28;20860;-58
2023/08/22 05:51:21;;;;;;;15.00;12.18;;;;;;;;;;4974344;28;20355;-58
2023/08/22 05:53:46;;;;;;;16.43;11.87;;;;;;;;;;4953386;28;20030;-55
2023/08/22 05:56:11;;;;;;;16.20;11.97;;;;;;;;;;4973420;28;20033;-55
2023/08/22 05:58:37;;;;;;;14.63;12.13;;;;;;;;;;4954092;28;20312;-54
2023/08/22 06:01:06;;;;;;;16.90;11.77;;;;;;;;;;4986989;28;20387;-56
2023/08/22 06:03:31;;;;;;;16.08;12.00;;;;;;;;;;4972550;28;20084;-59
2023/08/22 06:05:56;;;;;;;17.95;12.20;;;;;;;;;;4980107;28;20198;-56
2023/08/22 06:08:21;;;;;;;14.77;12.05;;;;;;;;;;4969902;28;20045;-55
2023/08/22 06:10:47;;;;;;;13.48;11.15;;;;;;;;;;4972244;28;20093;-55
2023/08/22 06:13:12;;;;;;;13.50;12.02;;;;;;;;;;4973097;28;20423;-55
2023/08/22 06:15:37;;;;;;;14.23;11.63;;;;;;;;;;4973095;28;20515;-55
2023/08/22 06:18:03;;;;;;;13.03;11.67;;;;;;;;;;4951437;28;20531;-54
2023/08/22 06:20:28;;;;;;;13.75;11.52;;;;;;;;;;4959191;28;20501;-54
2023/08/22 06:22:53;;;;;;;14.87;11.63;;;;;;;;;;4963395;28;20042;-54
2023/08/22 06:25:18;;;;;;;14.93;11.80;;;;;;;;;;4967691;28;21515;-55
2023/08/22 06:27:43;;;;;;;14.93;11.73;;;;;;;;;;4971424;28;20534;-54
2023/08/22 06:30:09;;;;;;;13.33;10.77;;;;;;;;;;4969824;28;20547;-55
2023/08/22 06:32:34;;;;;;;14.45;11.10;;;;;;;;;;4969034;28;20520;-54
2023/08/22 06:34:59;;;;;;;12.97;10.53;;;;;;;;;;4969615;28;20041;-54
2023/08/22 06:37:25;;;;;;;13.00;11.60;;;;;;;;;;4969776;28;20935;-56
2023/08/22 06:39:50;;;;;;;13.63;11.32;;;;;;;;;;4968967;28;20049;-56
2023/08/22 06:42:15;;;;;;;15.13;11.25;;;;;;;;;;4978291;28;20034;-56
2023/08/22 06:44:41;;;;;;;15.70;11.32;;;;;;;;;;4970771;28;20751;-56
2023/08/22 06:47:06;;;;;;;16.23;11.35;;;;;;;;;;4968486;28;20077;-56
2023/08/22 06:49:31;;;;;;;18.30;11.43;;;;;;;;;;4943439;28;20794;-55
2023/08/22 06:51:56;;;;;;;18.30;12.30;;;;;;;;;;4972349;28;20041;-55
2023/08/22 06:54:22;;;;;;;14.00;11.23;;;;;;;;;;4969775;28;20061;-56
2023/08/22 06:56:47;;;;;;;15.23;11.02;;;;;;;;;;4974702;28;20468;-55
2023/08/22 06:59:12;;;;;;;17.57;10.93;;;;;;;;;;4957238;28;20050;-55
2023/08/22 07:01:39;;;;;;;12.93;10.80;;;;;;;;;;4969287;28;20042;-55
2023/08/22 07:04:04;;;;;;;14.55;10.52;;;;;;;;;;4973467;28;20402;-55
2023/08/22 07:06:29;;;;;;;14.33;11.43;;;;;;;;;;4970899;28;20068;-55
2023/08/22 07:08:55;;;;;;;14.47;11.33;;;;;;;;;;4971644;28;20853;-55
2023/08/22 07:11:20;;;;;;;13.25;11.10;;;;;;;;;;4964320;28;20895;-56
2023/08/22 07:13:45;;;;;;;14.03;11.20;;;;;;;;;;4978581;28;20049;-56
2023/08/22 07:16:10;;;;;;;14.17;10.93;;;;;;;;;;4976636;28;20347;-55
2023/08/22 07:18:36;;;;;;;14.95;11.40;;;;;;;;;;4988641;28;20392;-55
2023/08/22 07:21:04;;;;;;;13.03;11.63;;;;;;;;;;4985438;28;20045;-55
2023/08/22 07:23:29;;;;;;;14.65;10.38;;;;;;;;;;4985544;28;20305;-56
2023/08/22 07:25:54;;;;;;;16.60;11.67;;;;;;;;;;4965598;28;20449;-55
2023/08/22 07:28:20;;;;;;;16.23;10.60;;;;;;;;;;4990141;28;20315;-55
2023/08/22 07:30:46;;;;;;;15.17;11.10;;;;;;;;;;4988217;28;20141;-55
2023/08/22 07:33:11;;;;;;;16.73;10.95;;;;;;;;;;4976195;28;20050;-55
2023/08/22 07:35:37;;;;;;;15.05;11.00;;;;;;;;;;4962476;28;20038;-55
2023/08/22 07:38:02;;;;;;;18.58;10.45;;;;;;;;;;4982805;28;20160;-55
2023/08/22 07:40:28;;;;;;;17.92;10.18;;;;;;;;;;4962206;28;20034;-55
2023/08/22 07:42:53;;;;;;;12.00;9.57;;;;;;;;;;4978412;28;20380;-56
2023/08/22 07:45:18;;;;;;;13.93;10.17;;;;;;;;;;4988847;28;20415;-56
2023/08/22 07:47:44;;;;;;;11.18;9.70;;;;;;;;;;4982107;28;20286;-54
2023/08/22 07:50:09;;;;;;;12.95;9.57;;;;;;;;;;4979613;28;20523;-54
2023/08/22 07:52:35;;;;;;;14.18;10.27;;;;;;;;;;4981057;28;20113;-54
2023/08/22 07:55:00;;;;;;;14.60;10.23;;;;;;;;;;4976372;28;20073;-55
2023/08/22 07:57:25;;;;;;;16.00;10.50;;;;;;;;;;4979219;28;20149;-55
2023/08/22 07:59:50;;;;;;;17.00;11.27;;;;;;;;;;4976079;28;20077;-55
2023/08/22 08:02:16;;;;;;;13.93;9.90;;;;;;;;;;4972881;28;20157;-55
2023/08/22 08:04:41;;;;;;;14.25;9.88;;;;;;;;;;4971713;28;20330;-55
2023/08/22 08:07:06;;;;;;;14.13;10.55;;;;;;;;;;4985046;28;20034;-55
2023/08/22 08:09:33;;;;;;;11.33;9.90;;;;;;;;;;4970502;28;20423;-55
2023/08/22 08:11:58;;;;;;;14.02;10.55;;;;;;;;;;4987982;28;20045;-55
2023/08/22 08:14:23;;;;;;;12.52;10.07;;;;;;;;;;4973184;28;20049;-55
2023/08/22 08:16:48;;;;;;;11.90;9.93;;;;;;;;;;4972719;28;20053;-54
2023/08/22 08:19:14;;;;;;;11.73;9.67;;;;;;;;;;4974379;28;20841;-55
2023/08/22 08:21:40;;;;;;;12.98;9.63;;;;;;;;;;4979551;28;20388;-55
2023/08/22 08:24:06;;;;;;;14.50;9.95;;;;;;;;;;4965509;28;20046;-55
2023/08/22 08:26:31;;;;;;;11.95;10.40;;;;;;;;;;4974105;28;20471;-55
2023/08/22 08:28:56;;;;;;;15.03;9.30;;;;;;;;;;4973796;28;20030;-55
2023/08/22 08:31:22;;;;;;;12.27;10.05;;;;;;;;;;4973722;28;20288;-55
2023/08/22 08:33:47;;;;;;;12.57;9.97;;;;;;;;;;4977180;28;20031;-56
2023/08/22 08:36:12;;;;;;;13.93;10.20;;;;;;;;;;4980640;28;20045;-55
2023/08/22 08:38:37;;;;;;;12.73;10.00;;;;;;;;;;4986636;28;20042;-56
2023/08/22 08:41:03;;;;;;;11.50;9.17;;;;;;;;;;4971187;28;20045;-55
2023/08/22 08:43:29;;;;;;;14.20;9.98;;;;;;;;;;4981744;28;20045;-56
2023/08/22 08:45:54;;;;;;;13.07;9.40;;;;;;;;;;4964026;28;20089;-55
2023/08/22 08:48:19;;;;;;;12.70;9.70;;;;;;;;;;4994568;28;20561;-55
2023/08/22 08:50:45;;;;;;;15.43;9.67;;;;;;;;;;4997080;28;20100;-55
2023/08/22 08:53:10;;;;;;;12.20;9.07;;;;;;;;;;4992846;28;20045;-57
2023/08/22 08:55:35;;;;;;;13.52;8.27;;;;;;;;;;4981800;28;20039;-56
2023/08/22 08:58:01;;;;;;;13.57;9.00;;;;;;;;;;4982303;28;20447;-55
2023/08/22 09:00:26;;;;;;;9.57;8.63;;;;;;;;;;4981851;28;20495;-56
2023/08/22 09:02:52;;;;;;;12.02;7.95;;;;;;;;;;4989196;28;20561;-56
2023/08/22 09:05:17;;;;;;;11.65;8.85;;;;;;;;;;4988102;28;20042;-55
2023/08/22 09:07:42;;;;;;;11.47;8.47;;;;;;;;;;4993156;28;20042;-55
2023/08/22 09:10:08;;;;;;;11.38;8.50;;;;;;;;;;4981642;28;20136;-56
2023/08/22 09:12:36;;;;;;;13.93;8.73;;;;;;;;;;4979412;28;20117;-57
2023/08/22 09:15:02;;;;;;;11.30;8.60;;;;;;;;;;4978603;28;21264;-56
2023/08/22 09:17:28;;;;;;;12.02;8.50;;;;;;;;;;4981262;28;20230;-56
2023/08/22 09:19:53;;;;;;;11.07;8.32;;;;;;;;;;4966360;28;20042;-54
2023/08/22 09:22:18;;;;;;;10.37;7.33;;;;;;;;;;4987134;28;20815;-56
2023/08/22 09:24:53;;;;;;;12.20;7.30;;;;;;;;;;4996338;28;20484;-56
2023/08/22 09:27:22;;;;;;;10.70;7.28;;;;;;;;;;4977315;28;20535;-56
2023/08/22 09:29:48;;;;;;;13.00;7.25;;;;;;;;;;5003836;28;20124;-55
2023/08/22 09:32:13;;;;;;;10.00;7.03;;;;;;;;;;4996025;28;20121;-56
2023/08/22 09:34:38;;;;;;;12.80;7.00;;;;;;;;;;4996369;28;20283;-56
2023/08/22 09:37:03;;;;;;;8.97;6.53;;;;;;;;;;4996798;28;20528;-57
2023/08/22 09:39:30;;;;;;;8.20;6.43;;;;;;;;;;4992305;28;20849;-57
2023/08/22 09:41:56;;;;;;;8.13;6.18;;;;;;;;;;4978928;28;20741;-56
2023/08/22 09:44:22;;;;;;;6.97;5.90;;;;;;;;;;4979456;28;20962;-57
2023/08/22 09:46:48;;;;;;;8.20;6.35;;;;;;;;;;5006026;28;20037;-57
2023/08/22 09:49:13;;;;;;;10.60;6.82;;;;;;;;;;4981620;28;20052;-57
2023/08/22 09:51:39;;;;;;;7.78;6.28;;;;;;;;;;4996892;28;20038;-55
2023/08/22 09:54:04;;;;;;;9.53;6.40;;;;;;;;;;4978872;28;20129;-57
2023/08/22 09:56:31;;;;;;;8.27;6.15;;;;;;;;;;4978212;28;20053;-56
2023/08/22 09:58:56;;;;;;;10.30;6.18;;;;;;;;;;4962052;28;20136;-56
2023/08/22 10:01:22;;;;;;;8.32;5.93;;;;;;;;;;4996744;28;20056;-57
2023/08/22 10:03:50;;;;;;;9.40;5.95;;;;;;;;;;5014508;28;20049;-57
2023/08/22 10:06:15;;;;;;;8.75;5.85;;;;;;;;;;4999555;28;20060;-57
2023/08/22 10:08:41;;;;;;;8.23;6.10;;;;;;;;;;4981736;28;20070;-56
2023/08/22 10:11:07;;;;;;;9.20;6.25;;;;;;;;;;4985742;28;20092;-56
2023/08/22 10:13:32;;;;;;;7.63;5.95;;;;;;;;;;4997827;28;20088;-58
2023/08/22 10:15:57;;;;;;;6.97;5.78;;;;;;;;;;4997892;28;20038;-57
2023/08/22 10:18:23;;;;;;;8.18;5.97;;;;;;;;;;5003448;28;20120;-57
2023/08/22 10:20:48;;;;;;;7.28;5.93;;;;;;;;;;4995557;28;20041;-55
2023/08/22 10:23:14;;;;;;;8.30;6.10;;;;;;;;;;4998320;28;20078;-56
2023/08/22 10:25:47;;;;;;;7.90;5.90;;;;;;;;;;4977638;28;20300;-57
2023/08/22 10:28:12;;;;;;;8.07;6.05;;;;;;;;;;4995692;28;20050;-57
2023/08/22 10:30:58;;;;;;;10.27;6.30;;;;;;;;;;4996507;28;20466;-57
2023/08/22 10:33:27;;;;;;;8.80;6.07;;;;;;;;;;4993897;28;20059;-57
2023/08/22 10:36:02;;;;;;;8.13;6.20;;;;;;;;;;4990165;28;20618;-57
2023/08/22 10:38:27;;;;;;;9.57;6.20;;;;;;;;;;4989952;28;20700;-57
2023/08/22 10:40:54;;;;;;;9.67;6.40;;;;;;;;;;4993836;28;20045;-58
2023/08/22 10:43:20;;;;;;;10.52;7.13;;;;;;;;;;4996646;28;20376;-57
2023/08/22 10:45:49;;;;;;;10.00;7.57;;;;;;;;;;4992304;28;20049;-57
2023/08/22 10:48:15;;;;;;;8.47;6.77;;;;;;;;;;4976659;28;20049;-57
2023/08/22 10:50:44;;;;;;;9.00;6.93;;;;;;;;;;4977934;28;20049;-58
2023/08/22 10:53:18;;;;;;;10.90;7.47;;;;;;;;;;4995569;28;20042;-57
2023/08/22 10:55:43;;;;;;;9.07;6.43;;;;;;;;;;4995090;28;20045;-58
2023/08/22 10:58:08;;;;;;;9.55;7.03;;;;;;;;;;4960382;28;20567;-57
2023/08/22 11:00:33;;;;;;;9.33;6.93;;;;;;;;;;4977726;28;20125;-57
2023/08/22 11:02:59;;;;;;;9.07;6.90;;;;;;;;;;4977188;28;20347;-57
2023/08/22 11:05:25;;;;;;;8.27;7.13;;;;;;;;;;4977423;28;20034;-56
2023/08/22 11:07:51;;;;;;;8.00;6.97;;;;;;;;;;4976406;28;20029;-57
2023/08/22 11:10:26;;;;;;;8.70;6.68;;;;;;;;;;4977252;28;20050;-57
2023/08/22 11:12:54;;;;;;;8.85;6.38;;;;;;;;;;4978630;28;20530;-57
2023/08/22 11:15:19;;;;;;;7.85;6.32;;;;;;;;;;4978833;28;20135;-57
2023/08/22 11:17:45;;;;;;;6.72;6.03;;;;;;;;;;4972932;28;20541;-57
2023/08/22 11:20:11;;;;;;;9.05;7.05;;;;;;;;;;4975653;28;20428;-57
2023/08/22 11:22:36;;;;;;;8.23;6.25;;;;;;;;;;4982078;28;20648;-58
2023/08/22 11:25:01;;;;;;;8.60;6.17;;;;;;;;;;4972133;28;20092;-57
2023/08/22 11:27:27;;;;;;;7.60;6.80;;;;;;;;;;4991007;28;20437;-57
2023/08/22 11:29:52;;;;;;;7.23;5.80;;;;;;;;;;4950786;28;20128;-58
2023/08/22 11:32:24;;;;;;;8.70;6.22;;;;;;;;;;4959427;28;21191;-58
2023/08/22 11:34:50;;;;;;;8.90;6.40;;;;;;;;;;4971245;28;20504;-60
2023/08/22 11:37:19;;;;;;;7.82;6.00;;;;;;;;;;4994528;28;20899;-57
2023/08/22 11:39:47;;;;;;;9.73;6.03;;;;;;;;;;4949511;28;20049;-57
2023/08/22 11:42:13;;;;;;;6.20;5.60;;;;;;;;;;4980309;28;20048;-57
2023/08/22 11:44:51;;;;;;;8.05;6.18;;;;;;;;;;4997480;28;20104;-56
2023/08/22 11:47:17;;;;;;;7.68;5.90;;;;;;;;;;4988025;28;20077;-57
2023/08/22 11:49:42;;;;;;;6.15;5.47;;;;;;;;;;4990384;28;20066;-56
2023/08/22 11:52:07;;;;;;;8.10;5.87;;;;;;;;;;4976093;28;20111;-56
2023/08/22 11:54:33;;;;;;;6.40;5.65;;;;;;;;;;4995860;28;20284;-55
2023/08/22 11:56:58;;;;;;;7.30;5.23;;;;;;;;;;4997666;28;20034;-55
2023/08/22 11:59:24;;;;;;;8.60;5.60;;;;;;;;;;4998050;28;20054;-56
2023/08/22 12:01:49;;;;;;;6.25;5.53;;;;;;;;;;4994705;28;20073;-55
2023/08/22 12:04:15;;;;;;;6.15;5.38;;;;;;;;;;4994884;28;20045;-56
2023/08/22 12:06:41;;;;;;;5.97;5.07;;;;;;;;;;5010928;28;20049;-55
2023/08/22 12:09:06;;;;;;;6.80;5.50;;;;;;;;;;4982543;28;20487;-56
2023/08/22 12:11:31;;;;;;;5.75;5.15;;;;;;;;;;4996601;28;20350;-56
2023/08/22 12:13:57;;;;;;;7.00;5.25;;;;;;;;;;4999350;28;20044;-57
2023/08/22 12:16:22;;;;;;;6.22;5.03;;;;;;;;;;4981431;28;20033;-56
2023/08/22 12:18:47;;;;;;;5.90;5.03;;;;;;;;;;4998354;28;20084;-56
2023/08/22 12:21:14;;;;;;;6.35;5.38;;;;;;;;;;4978879;28;20264;-56
2023/08/22 12:23:39;;;;;;;6.10;5.28;;;;;;;;;;5012966;28;20045;-56
2023/08/22 12:26:04;;;;;;;5.65;5.05;;;;;;;;;;4982394;28;20497;-56
2023/08/22 12:28:30;;;;;;;6.47;5.55;;;;;;;;;;4979237;28;20149;-55
2023/08/22 12:30:55;;;;;;;6.37;4.90;;;;;;;;;;4983568;28;20048;-55
2023/08/22 12:33:21;;;;;;;6.05;5.00;;;;;;;;;;4980968;28;20175;-55
2023/08/22 12:35:46;;;;;;;5.75;4.88;;;;;;;;;;5004655;28;20076;-56
2023/08/22 12:38:11;;;;;;;5.80;5.20;;;;;;;;;;4988895;28;20085;-56
2023/08/22 12:40:36;;;;;;;5.90;4.87;;;;;;;;;;4984604;28;20046;-56
2023/08/22 12:43:02;;;;;;;6.40;5.28;;;;;;;;;;5023833;28;20041;-56
2023/08/22 12:45:27;;;;;;;6.30;5.40;;;;;;;;;;5019913;28;20053;-54
2023/08/22 12:47:52;;;;;;;6.05;5.30;;;;;;;;;;5006321;28;20084;-56
2023/08/22 12:50:18;;;;;;;6.93;5.63;;;;;;;;;;5006355;28;20038;-57
2023/08/22 12:52:43;;;;;;;6.37;4.70;;;;;;;;;;5022669;28;20049;-55
2023/08/22 12:55:08;;;;;;;5.13;4.63;;;;;;;;;;5024531;28;20842;-54
2023/08/22 12:57:40;;;;;;;5.68;4.78;;;;;;;;;;5012235;28;20410;-56
2023/08/22 13:00:08;;;;;;;5.43;4.55;;;;;;;;;;4973165;28;20053;-56
2023/08/22 13:02:33;;;;;;;5.40;4.80;;;;;;;;;;5004100;28;20038;-56
2023/08/22 13:04:58;;;;;;;6.33;5.03;;;;;;;;;;4988296;28;20586;-55
2023/08/22 13:07:24;;;;;;;5.93;5.10;;;;;;;;;;4988061;28;20303;-56
2023/08/22 13:09:49;;;;;;;6.28;4.88;;;;;;;;;;5005805;28;20273;-55
2023/08/22 13:12:15;;;;;;;7.72;5.05;;;;;;;;;;4988657;28;20546;-55
2023/08/22 13:14:40;;;;;;;5.82;4.90;;;;;;;;;;4992808;28;20029;-54
2023/08/22 13:17:05;;;;;;;6.10;4.90;;;;;;;;;;5008037;28;20117;-55
2023/08/22 13:19:30;;;;;;;5.40;4.90;;;;;;;;;;5005781;28;20487;-56
2023/08/22 13:21:55;;;;;;;5.40;4.90;;;;;;;;;;5021173;28;20288;-56
2023/08/22 13:24:21;;;;;;;5.53;4.67;;;;;;;;;;4986245;28;20290;-54
2023/08/22 13:26:46;;;;;;;5.45;4.65;;;;;;;;;;4985850;28;20290;-55
2023/08/22 13:29:11;;;;;;;5.10;4.60;;;;;;;;;;5008321;28;20049;-54
2023/08/22 13:31:36;;;;;;;6.80;5.00;;;;;;;;;;4984048;28;20062;-55
2023/08/22 13:34:02;;;;;;;5.10;4.30;;;;;;;;;;5002871;28;20675;-56
2023/08/22 13:36:28;;;;;;;5.82;4.65;;;;;;;;;;4987509;28;20364;-55
2023/08/22 13:38:53;;;;;;;6.60;4.63;;;;;;;;;;5005299;28;20046;-55
2023/08/22 13:41:18;;;;;;;5.43;4.73;;;;;;;;;;5005537;28;20030;-55
2023/08/22 13:43:44;;;;;;;5.80;4.63;;;;;;;;;;5004880;28;20281;-55
2023/08/22 13:46:09;;;;;;;5.95;4.60;;;;;;;;;;5004835;28;20375;-55
2023/08/22 13:48:35;;;;;;;5.55;4.60;;;;;;;;;;5000235;28;20050;-56
2023/08/22 13:51:00;;;;;;;5.00;4.50;;;;;;;;;;4986585;28;20527;-55
2023/08/22 13:53:29;;;;;;;5.03;4.53;;;;;;;;;;5003437;28;20508;-55
2023/08/22 13:55:54;;;;;;;5.82;4.88;;;;;;;;;;5001513;28;20070;-55
2023/08/22 13:58:19;;;;;;;6.93;4.78;;;;;;;;;;4967202;28;20400;-55
2023/08/22 14:00:45;;;;;;;5.70;5.10;;;;;;;;;;4987477;28;20069;-54
2023/08/22 14:03:10;;;;;;;6.47;4.50;;;;;;;;;;4987016;28;20050;-56
2023/08/22 14:05:35;;;;;;;4.70;4.20;;;;;;;;;;5018980;28;20041;-55
2023/08/22 14:08:00;;;;;;;4.78;3.88;;;;;;;;;;5024787;28;20280;-55
2023/08/22 14:10:26;;;;;;;4.60;4.10;;;;;;;;;;4993221;28;20151;-55
2023/08/22 14:12:51;;;;;;;5.30;4.45;;;;;;;;;;5004134;28;20033;-55
2023/08/22 14:15:16;;;;;;;5.60;4.37;;;;;;;;;;5004465;28;20030;-56
2023/08/22 14:17:41;;;;;;;5.13;4.47;;;;;;;;;;4986919;28;20304;-56
2023/08/22 14:20:07;;;;;;;5.50;4.33;;;;;;;;;;5002709;28;20744;-57
2023/08/22 14:22:32;;;;;;;5.53;4.05;;;;;;;;;;5020586;28;20505;-54